Time;durP1;ratioP1;P1;durP2;ratioP2;P2;SDS_P1;SDS_P2;PMS_P1;PMS_P2;Temp;Humidity;BMP_temperature;BMP_pressure;BME280_temperature;BME280_humidity;BME280_pressure;Samples;Min_cycle;Max_cycle;Signal;HPM_P1;HPM_P2
2022/07/22 00:00:17;;;;;;;15.97;9.00;;;;;;;20.50;100.00;62996.09;5080877;28;20257;-76
2022/07/22 00:02:44;;;;;;;11.13;7.53;;;;;;;21.18;100.00;63066.53;5070532;28;20200;-75
2022/07/22 00:05:13;;;;;;;11.03;6.70;;;;;;;21.09;100.00;63061.44;5070626;28;20666;-76
2022/07/22 00:07:40;;;;;;;11.63;6.80;;;;;;;20.88;100.00;63041.84;5070362;28;20655;-75
2022/07/22 00:10:11;;;;;;;11.10;7.83;;;;;;;20.69;100.00;63021.81;5083621;28;20207;-76
2022/07/22 00:12:39;;;;;;;15.70;9.93;;;;;;;20.19;100.00;62965.16;5077265;28;20196;-76
2022/07/22 00:15:08;;;;;;;17.90;9.50;;;;;;;20.92;100.00;63041.53;5080853;28;20213;-76
2022/07/22 00:17:36;;;;;;;14.27;8.00;;;;;;;19.72;100.00;62912.28;5062022;28;20231;-76
2022/07/22 00:20:06;;;;;;;13.23;8.30;;;;;;;20.50;100.00;62998.69;5074217;28;20756;-77
2022/07/22 00:22:35;;;;;;;11.57;5.87;;;;;;;20.30;100.00;62971.88;5074730;28;20199;-76
2022/07/22 00:25:02;;;;;;;6.43;4.97;;;;;;;19.87;100.00;62925.34;5074944;28;20594;-76
2022/07/22 00:27:30;;;;;;;8.07;4.33;;;;;;;20.10;100.00;62955.41;5074410;28;20251;-76
2022/07/22 00:29:58;;;;;;;13.80;8.20;;;;;;;19.78;100.00;62920.81;5081238;28;20192;-76
2022/07/22 00:32:26;;;;;;;42.53;21.00;;;;;;;18.78;100.00;62808.66;5079208;28;20659;-75
2022/07/22 00:34:54;;;;;;;50.87;27.17;;;;;;;19.72;100.00;62916.91;5075690;28;20191;-74
2022/07/22 00:37:21;;;;;;;70.30;34.03;;;;;;;19.53;100.00;62893.78;5076761;28;20243;-77
2022/07/22 00:39:50;;;;;;;58.10;31.40;;;;;;;19.75;100.00;62917.56;5093778;28;20204;-76
2022/07/22 00:42:19;;;;;;;42.53;21.43;;;;;;;19.87;100.00;62927.94;5093205;28;20273;-76
2022/07/22 00:44:47;;;;;;;25.20;12.60;;;;;;;19.85;100.00;62933.53;5093553;28;20191;-77
2022/07/22 00:47:15;;;;;;;19.63;10.17;;;;;;;19.90;100.00;62933.78;5079509;27;20196;-76
2022/07/22 00:49:43;;;;;;;13.43;7.83;;;;;;;18.94;100.00;62830.56;5092276;28;20199;-75
2022/07/22 00:52:11;;;;;;;13.07;7.60;;;;;;;19.90;100.00;62933.78;5093263;28;20187;-76
2022/07/22 00:54:41;;;;;;;9.73;6.33;;;;;;;19.84;100.00;62927.31;5093597;28;20202;-75
2022/07/22 00:57:09;;;;;;;14.20;7.77;;;;;;;19.40;100.00;62879.75;5092919;28;20215;-76
2022/07/22 00:59:38;;;;;;;22.30;10.97;;;;;;;19.66;100.00;62905.78;5090589;28;20215;-75
2022/07/22 01:02:06;;;;;;;12.27;8.03;;;;;;;19.59;100.00;62897.69;5083361;28;20191;-75
2022/07/22 01:04:35;;;;;;;8.60;5.27;;;;;;;18.60;100.00;62794.38;5079680;28;20200;-75
2022/07/22 01:07:02;;;;;;;14.30;7.07;;;;;;;19.87;100.00;62925.34;5083310;28;20204;-76
2022/07/22 01:09:30;;;;;;;11.53;5.37;;;;;;;19.92;100.00;62938.53;5073140;28;20196;-75
2022/07/22 01:11:58;;;;;;;8.23;5.30;;;;;;;19.97;100.00;62936.16;5073641;28;20208;-76
2022/07/22 01:14:27;;;;;;;8.73;4.70;;;;;;;19.98;100.00;62945.53;5073721;28;20196;-75
2022/07/22 01:16:54;;;;;;;5.53;4.40;;;;;;;20.03;100.00;62947.84;5082457;28;20709;-76
2022/07/22 01:19:21;;;;;;;13.73;6.30;;;;;;;20.03;100.00;62947.84;5084790;28;20579;-76
2022/07/22 01:21:52;;;;;;;13.07;8.03;;;;;;;19.00;100.00;62832.41;5074313;28;20200;-74
2022/07/22 01:24:21;;;;;;;7.67;5.17;;;;;;;19.26;100.00;62860.50;5092522;28;20203;-75
2022/07/22 01:26:49;;;;;;;9.00;4.67;;;;;;;20.02;100.00;62947.28;5092138;28;20306;-75
2022/07/22 01:29:17;;;;;;;12.57;6.73;;;;;;;20.07;100.00;62952.69;5093134;28;20196;-76
2022/07/22 01:31:44;;;;;;;15.23;9.63;;;;;;;20.02;100.00;62942.09;5092552;28;20205;-76
2022/07/22 01:34:11;;;;;;;19.17;9.53;;;;;;;19.94;100.00;62938.09;5092813;28;20642;-76
2022/07/22 01:36:40;;;;;;;13.13;9.10;;;;;;;19.97;100.00;62938.75;5082033;28;20224;-76
2022/07/22 01:39:09;;;;;;;20.53;9.63;;;;;;;19.94;100.00;62938.09;5090194;28;20199;-75
2022/07/22 01:41:36;;;;;;;14.20;8.47;;;;;;;19.87;100.00;62933.66;5081496;28;20566;-78
2022/07/22 01:44:03;;;;;;;16.43;9.00;;;;;;;18.99;100.00;62835.97;5073552;28;20582;-76
2022/07/22 01:46:31;;;;;;;14.63;9.53;;;;;;;19.67;100.00;62908.91;5075837;28;20577;-75
2022/07/22 01:48:59;;;;;;;14.77;7.03;;;;;;;18.77;100.00;62812.75;5075556;28;20682;-76
2022/07/22 01:51:28;;;;;;;16.97;7.27;;;;;;;19.53;100.00;62893.78;5073469;28;20282;-75
2022/07/22 01:53:55;;;;;;;10.37;6.27;;;;;;;19.25;100.00;62866.63;5073011;28;20200;-75
2022/07/22 01:56:24;;;;;;;8.37;6.10;;;;;;;19.36;100.00;62871.31;5072749;28;20196;-76
2022/07/22 01:58:53;;;;;;;7.47;5.90;;;;;;;18.63;100.00;62802.81;5059674;28;20220;-75
2022/07/22 02:01:21;;;;;;;9.13;6.07;;;;;;;19.04;100.00;62841.91;5072493;28;20651;-76
2022/07/22 02:03:48;;;;;;;11.37;5.60;;;;;;;17.89;100.00;62717.75;5072623;28;20204;-74
2022/07/22 02:06:15;;;;;;;7.77;5.50;;;;;;;19.02;100.00;62839.19;5071023;28;20208;-75
2022/07/22 02:08:44;;;;;;;14.40;6.50;;;;;;;18.85;100.00;62821.41;5071932;28;20218;-76
2022/07/22 02:11:13;;;;;;;12.67;5.80;;;;;;;18.98;100.00;62829.72;5072331;28;20557;-77
2022/07/22 02:13:45;;;;;;;13.27;6.00;;;;;;;18.94;100.00;62828.53;5072135;28;20200;-77
2022/07/22 02:16:12;;;;;;;8.00;5.37;;;;;;;17.83;100.00;62711.28;5089487;28;20199;-75
2022/07/22 02:18:39;;;;;;;11.77;6.13;;;;;;;18.77;100.00;62812.75;5091711;28;20673;-76
2022/07/22 02:21:08;;;;;;;9.27;6.00;;;;;;;18.79;100.00;62814.91;5076995;28;20210;-76
2022/07/22 02:23:36;;;;;;;6.53;5.50;;;;;;;18.45;100.00;62775.63;5080940;28;20567;-75
2022/07/22 02:26:04;;;;;;;13.27;6.00;;;;;;;18.11;100.00;62741.50;5072131;28;20710;-75
2022/07/22 02:28:32;;;;;;;11.60;5.50;;;;;;;19.02;100.00;62834.03;5084121;28;20203;-76
2022/07/22 02:31:01;;;;;;;10.53;5.90;;;;;;;19.10;100.00;62842.69;5102352;28;20195;-73
2022/07/22 02:33:30;;;;;;;19.53;6.37;;;;;;;18.95;100.00;62829.06;5075619;28;20641;-77
2022/07/22 02:35:59;;;;;;;9.93;5.50;;;;;;;18.98;100.00;62830.25;5070984;28;20196;-75
2022/07/22 02:38:26;;;;;;;12.13;5.80;;;;;;;18.95;100.00;62829.63;5071691;28;20228;-76
2022/07/22 02:40:54;;;;;;;13.90;5.97;;;;;;;18.27;100.00;62758.75;5085454;28;20199;-75
2022/07/22 02:43:21;;;;;;;10.57;5.97;;;;;;;19.20;100.00;62856.06;5071680;28;20200;-76
2022/07/22 02:45:51;;;;;;;10.73;5.50;;;;;;;19.18;100.00;62856.47;5071527;28;20192;-76
2022/07/22 02:48:20;;;;;;;9.40;5.60;;;;;;;19.34;100.00;62874.34;5071559;28;20207;-76
2022/07/22 02:50:48;;;;;;;10.27;5.60;;;;;;;18.08;100.00;62743.94;5071500;28;20279;-76
2022/07/22 02:53:19;;;;;;;10.33;5.30;;;;;;;18.51;100.00;62785.22;5071342;28;20200;-76
2022/07/22 02:55:46;;;;;;;7.97;5.33;;;;;;;19.41;100.00;62880.81;5071839;28;20196;-75
2022/07/22 02:58:14;;;;;;;7.87;5.30;;;;;;;19.47;100.00;62882.69;5071804;28;20224;-75
2022/07/22 03:00:42;;;;;;;9.97;5.47;;;;;;;19.47;100.00;62887.31;5072246;28;20201;-77
2022/07/22 03:03:10;;;;;;;8.30;5.53;;;;;;;18.35;100.00;62762.22;5072001;28;20230;-77
2022/07/22 03:05:38;;;;;;;9.27;6.03;;;;;;;19.29;100.00;62868.38;5071314;28;20202;-75
2022/07/22 03:08:07;;;;;;;10.30;5.83;;;;;;;18.37;100.00;62766.97;5072360;28;20654;-76
2022/07/22 03:10:36;;;;;;;8.40;5.53;;;;;;;19.09;100.00;62846.78;5090423;28;20662;-76
2022/07/22 03:13:04;;;;;;;9.10;5.30;;;;;;;18.00;100.00;62725.00;5071171;28;20192;-77
2022/07/22 03:15:32;;;;;;;14.30;5.30;;;;;;;18.80;100.00;62810.81;5071165;28;20227;-76
2022/07/22 03:17:59;;;;;;;11.77;5.30;;;;;;;18.56;100.00;62787.50;5071444;28;20228;-74
2022/07/22 03:20:28;;;;;;;6.13;5.37;;;;;;;18.94;100.00;62830.56;5070740;28;20258;-76
2022/07/22 03:22:57;;;;;;;5.87;5.17;;;;;;;18.94;100.00;62827.97;5069944;28;20208;-76
2022/07/22 03:25:25;;;;;;;9.80;5.23;;;;;;;18.93;100.00;62826.91;5070346;28;20243;-75
2022/07/22 03:27:52;;;;;;;9.53;5.40;;;;;;;18.32;100.00;62764.69;5071288;28;20196;-75
2022/07/22 03:30:19;;;;;;;7.30;5.40;;;;;;;18.97;100.00;62831.78;5070940;28;20211;-76
2022/07/22 03:32:48;;;;;;;10.57;6.10;;;;;;;19.16;100.00;62854.88;5071713;28;20328;-75
2022/07/22 03:35:15;;;;;;;8.40;5.73;;;;;;;19.20;100.00;62854.03;5070925;28;20204;-75
2022/07/22 03:37:43;;;;;;;13.33;6.77;;;;;;;19.30;100.00;62864.28;5070711;28;20224;-76
2022/07/22 03:40:13;;;;;;;10.07;5.50;;;;;;;19.42;100.00;62881.91;5087367;28;20198;-77
2022/07/22 03:42:41;;;;;;;14.20;6.17;;;;;;;19.55;100.00;62893.38;5090828;28;20206;-76
2022/07/22 03:45:10;;;;;;;14.37;5.97;;;;;;;19.45;100.00;62879.97;5090611;28;20198;-77
2022/07/22 03:47:37;;;;;;;12.23;7.43;;;;;;;18.81;100.00;62811.91;5092656;28;20203;-77
2022/07/22 03:50:08;;;;;;;22.00;13.73;;;;;;;19.81;100.00;62918.88;5094382;28;20195;-75
2022/07/22 03:52:38;;;;;;;15.73;11.33;;;;;;;19.87;100.00;62930.53;5094511;28;20207;-75
2022/07/22 03:55:08;;;;;;;15.70;9.17;;;;;;;20.04;100.00;62948.91;5074898;28;20204;-76
2022/07/22 03:57:38;;;;;;;16.73;10.93;;;;;;;19.68;100.00;62904.84;5074739;28;20235;-76
2022/07/22 04:00:09;;;;;;;15.10;8.20;;;;;;;19.25;100.00;62869.78;5075116;28;20200;-75
2022/07/22 04:02:37;;;;;;;10.03;5.40;;;;;;;19.82;100.00;62925.66;5074823;28;20204;-77
2022/07/22 04:05:05;;;;;;;9.40;5.37;;;;;;;18.91;100.00;62827.88;5075449;28;20211;-75
2022/07/22 04:07:34;;;;;;;10.40;5.23;;;;;;;20.27;100.00;62971.22;5075310;28;20234;-76
2022/07/22 04:10:05;;;;;;;12.07;5.93;;;;;;;20.21;100.00;62962.13;5075219;28;20587;-75
2022/07/22 04:12:34;;;;;;;9.13;5.63;;;;;;;20.00;100.00;62942.00;5075202;28;20192;-76
2022/07/22 04:15:04;;;;;;;6.67;5.20;;;;;;;19.44;100.00;62884.06;5074381;28;20204;-76
2022/07/22 04:17:31;;;;;;;11.13;5.50;;;;;;;20.54;100.00;62997.84;5074132;28;20238;-77
2022/07/22 04:20:00;;;;;;;7.13;4.97;;;;;;;20.61;100.00;63005.41;5080319;28;20320;-76
2022/07/22 04:22:31;;;;;;;7.17;5.07;;;;;;;20.55;100.00;63003.53;5079317;28;20236;-75
2022/07/22 04:24:58;;;;;;;11.00;4.97;;;;;;;20.66;100.00;63013.41;5074499;28;20289;-76
2022/07/22 04:27:27;;;;;;;11.90;4.73;;;;;;;19.66;100.00;62902.69;5073994;28;20713;-75
2022/07/22 04:29:57;;;;;;;8.73;5.17;;;;;;;20.63;100.00;63007.00;5084576;28;20409;-77
2022/07/22 04:32:27;;;;;;;7.60;4.73;;;;;;;20.63;100.00;63012.75;5078687;28;20202;-75
2022/07/22 04:34:53;;;;;;;13.20;5.63;;;;;;;20.67;100.00;63011.34;5079506;28;20202;-76
2022/07/22 04:37:23;;;;;;;15.33;6.27;;;;;;;20.91;100.00;63043.03;5080490;28;20215;-77
2022/07/22 04:39:51;;;;;;;10.70;5.00;;;;;;;21.06;100.00;63058.19;5083703;28;20196;-74
2022/07/22 04:42:20;;;;;;;10.50;5.77;;;;;;;21.02;100.00;63052.38;5075981;28;20522;-75
2022/07/22 04:44:48;;;;;;;11.43;5.77;;;;;;;21.12;100.00;63056.91;5093746;28;20192;-75
2022/07/22 04:47:16;;;;;;;16.87;6.00;;;;;;;20.63;100.00;63012.75;5093696;28;20226;-76
2022/07/22 04:49:44;;;;;;;12.50;6.47;;;;;;;21.41;100.00;63093.50;5092832;28;20196;-77
2022/07/22 04:52:12;;;;;;;16.43;6.70;;;;;;;20.53;100.00;63004.50;5072746;28;20208;-76
2022/07/22 04:54:41;;;;;;;13.33;6.57;;;;;;;21.82;100.00;63140.50;5072624;28;20204;-74
2022/07/22 04:57:08;;;;;;;18.17;7.53;;;;;;;21.91;100.00;63145.06;5073836;28;20204;-76
2022/07/22 04:59:36;;;;;;;16.93;7.37;;;;;;;21.79;100.00;63135.16;5073359;28;20212;-75
2022/07/22 05:02:04;;;;;;;20.30;7.60;;;;;;;22.36;100.00;63198.97;5073753;28;20208;-77
2022/07/22 05:04:32;;;;;;;29.07;8.27;;;;;;;22.27;100.00;63189.25;5072517;28;20192;-75
2022/07/22 05:07:02;;;;;;;18.97;8.87;;;;;;;22.40;100.00;63198.13;5073920;28;20286;-76
2022/07/22 05:09:30;;;;;;;33.00;9.83;;;;;;;22.39;100.00;63197.03;5074022;28;20200;-77
2022/07/22 05:11:57;;;;;;;19.97;9.60;;;;;;;22.31;100.00;63190.97;5073605;28;20200;-76
2022/07/22 05:14:24;;;;;;;22.03;9.57;;;;;;;22.57;100.00;63216.56;5081708;28;20582;-75
2022/07/22 05:16:52;;;;;;;34.30;11.37;;;;;;;21.67;100.00;63124.25;5092815;28;20199;-75
2022/07/22 05:19:20;;;;;;;18.73;8.27;;;;;;;22.76;100.00;63236.06;5092923;28;20263;-77
2022/07/22 05:21:48;;;;;;;25.30;8.83;;;;;;;23.14;100.00;63277.25;5092176;28;20195;-77
2022/07/22 05:24:18;;;;;;;23.00;8.27;;;;;;;23.25;100.00;63289.72;5093108;28;20199;-74
2022/07/22 05:26:45;;;;;;;28.93;9.00;;;;;;;23.37;100.00;63307.41;5092379;28;20291;-75
2022/07/22 05:29:12;;;;;;;19.57;9.33;;;;;;;22.55;100.00;63214.38;5093649;28;20703;-75
2022/07/22 05:31:39;;;;;;;29.60;10.53;;;;;;;23.43;100.00;63309.25;5095832;28;20192;-74
2022/07/22 05:34:11;;;;;;;21.73;9.13;;;;;;;23.52;100.00;63323.69;5092941;28;20278;-76
2022/07/22 05:36:39;;;;;;;15.80;8.73;;;;;;;23.26;100.00;63290.28;5082464;28;20707;-77
2022/07/22 05:39:07;;;;;;;18.60;9.30;;;;;;;23.48;100.00;63314.66;5076678;28;20219;-75
2022/07/22 05:41:35;;;;;;;15.73;9.43;;;;;;;23.48;100.00;63314.16;5092917;28;20207;-75
2022/07/22 05:44:02;;;;;;;24.93;9.27;;;;;;;23.71;100.00;63341.13;5092255;28;20192;-75
2022/07/22 05:46:29;;;;;;;15.77;9.30;;;;;;;23.81;100.00;63354.59;5092182;28;20204;-75
2022/07/22 05:48:58;;;;;;;14.33;8.03;;;;;;;23.32;100.00;63297.31;5090894;28;20199;-76
2022/07/22 05:51:25;;;;;;;23.23;8.67;;;;;;;23.16;100.00;63279.44;5091562;28;20205;-75
2022/07/22 05:53:53;;;;;;;20.40;8.83;;;;;;;24.16;100.00;63387.94;5091413;28;20200;-75
2022/07/22 05:56:20;;;;;;;22.57;8.17;;;;;;;23.41;100.00;63303.94;5092279;28;20200;-77
2022/07/22 05:58:50;;;;;;;24.63;8.23;;;;;;;24.67;100.00;63442.72;5078741;27;20220;-77
2022/07/22 06:01:18;;;;;;;27.77;8.77;;;;;;;24.80;100.00;63456.88;5092208;28;20578;-77
2022/07/22 06:03:47;;;;;;;18.60;8.10;;;;;;;24.88;100.00;63468.16;5091926;28;20230;-76
2022/07/22 06:06:14;;;;;;;17.63;8.00;;;;;;;25.14;100.00;63498.44;5091742;28;20209;-75
2022/07/22 06:08:41;;;;;;;20.93;8.37;;;;;;;25.29;100.00;63509.53;5091887;28;20565;-75
2022/07/22 06:11:09;;;;;;;23.83;8.23;;;;;;;25.51;100.00;63535.50;5077409;28;20215;-76
2022/07/22 06:13:36;;;;;;;16.30;8.00;;;;;;;25.52;100.00;63533.97;5091823;28;20275;-75
2022/07/22 06:16:07;;;;;;;13.40;7.87;;;;;;;25.61;100.00;63543.78;5091717;28;20646;-76
2022/07/22 06:18:35;;;;;;;20.03;8.83;;;;;;;25.50;100.00;63532.34;5092053;28;20686;-76
2022/07/22 06:21:02;;;;;;;17.93;8.23;;;;;;;25.05;100.00;63488.69;5077273;28;20206;-76
2022/07/22 06:23:31;;;;;;;22.90;8.43;;;;;;;25.96;100.00;63582.34;5072223;28;20206;-75
2022/07/22 06:25:59;;;;;;;18.87;8.47;;;;;;;25.29;100.00;63509.53;5071703;28;20246;-74
2022/07/22 06:28:26;;;;;;;23.33;8.17;;;;;;;26.39;100.00;63628.56;5071772;28;20221;-75
2022/07/22 06:30:54;;;;;;;15.40;8.33;;;;;;;25.57;100.00;63536.81;5071675;28;20205;-76
2022/07/22 06:33:23;;;;;;;16.10;8.40;;;;;;;26.29;100.00;63614.53;5073290;28;20196;-76
2022/07/22 06:35:50;;;;;;;18.87;8.13;;;;;;;26.74;100.00;63666.09;5072207;28;20196;-75
2022/07/22 06:38:19;;;;;;;16.77;8.57;;;;;;;26.70;100.00;63666.94;5082019;28;20325;-76
2022/07/22 06:40:46;;;;;;;14.47;8.33;;;;;;;26.92;100.00;63685.66;5090527;28;20195;-75
2022/07/22 06:43:14;;;;;;;20.57;8.67;;;;;;;26.77;100.00;63671.97;5090956;28;20204;-76
2022/07/22 06:45:42;;;;;;;20.27;8.67;;;;;;;26.90;100.00;63682.94;5074463;28;20687;-76
2022/07/22 06:48:10;;;;;;;18.20;8.13;;;;;;;26.53;100.00;63643.22;5071431;28;20331;-77
2022/07/22 06:50:41;;;;;;;15.13;7.80;;;;;;;26.89;100.00;63685.00;5085270;28;20214;-75
2022/07/22 06:53:10;;;;;;;17.13;7.70;;;;;;;27.22;100.00;63720.91;5091743;28;20195;-76
2022/07/22 06:55:38;;;;;;;12.83;7.00;;;;;;;27.64;100.00;63763.47;5075394;28;20204;-76
2022/07/22 06:58:05;;;;;;;13.20;7.07;;;;;;;27.53;100.00;63754.13;5071350;28;20203;-76
2022/07/22 07:00:33;;;;;;;14.13;6.27;;;;;;;27.93;100.00;63799.75;5074608;28;20207;-76
2022/07/22 07:03:01;;;;;;;13.83;6.20;;;;;;;27.89;100.00;63795.38;5072037;28;20226;-75
2022/07/22 07:05:29;;;;;;;12.73;6.30;;;;;;;28.35;100.00;63843.41;5080499;28;20244;-76
2022/07/22 07:07:57;;;;;;;10.83;6.70;;;;;;;28.63;100.00;63873.38;5074330;28;20265;-77
2022/07/22 07:10:25;;;;;;;12.97;6.60;;;;;;;29.06;100.00;63920.22;5071163;28;20196;-76
2022/07/22 07:12:57;;;;;;;14.60;6.40;;;;;;;29.34;100.00;63949.69;5071343;28;20201;-77
2022/07/22 07:15:26;;;;;;;16.90;6.43;;;;;;;29.38;100.00;63954.56;5082509;28;20200;-76
2022/07/22 07:17:56;;;;;;;19.03;6.63;;;;;;;28.50;100.00;63861.81;5091133;28;20200;-75
2022/07/22 07:20:24;;;;;;;16.33;7.57;;;;;;;29.50;100.00;63959.22;5078922;28;20205;-77
2022/07/22 07:22:53;;;;;;;18.40;7.13;;;;;;;28.68;100.00;63873.03;5070834;28;20210;-75
2022/07/22 07:25:22;;;;;;;14.47;6.80;;;;;;;29.26;100.00;63938.84;5084050;28;20225;-75
2022/07/22 07:27:50;;;;;;;15.83;6.37;;;;;;;29.83;100.00;64001.03;5064325;28;20202;-77
2022/07/22 07:30:18;;;;;;;11.73;6.07;;;;;;;30.26;100.00;64047.38;5090925;28;20656;-75
2022/07/22 07:32:46;;;;;;;14.20;6.00;;;;;;;29.85;100.00;63997.94;5064637;28;20208;-75
2022/07/22 07:35:14;;;;;;;15.60;5.97;;;;;;;30.74;100.00;64099.75;5077235;28;20253;-76
2022/07/22 07:37:42;;;;;;;17.20;6.40;;;;;;;30.66;100.00;64091.03;5072023;28;20191;-76
2022/07/22 07:40:11;;;;;;;11.93;5.27;;;;;;;30.71;100.00;64101.72;5070496;28;20606;-76
2022/07/22 07:42:41;;;;;;;12.20;5.53;;;;;;;30.86;100.00;64111.75;5070537;28;20199;-76
2022/07/22 07:45:09;;;;;;;12.60;5.30;;;;;;;30.81;100.00;64102.13;5071399;28;20278;-75
2022/07/22 07:47:36;;;;;;;9.03;5.20;;;;;;;30.93;100.00;64114.16;5070820;28;20197;-75
2022/07/22 07:50:07;;;;;;;11.10;5.10;;;;;;;30.96;100.00;64122.69;5070858;28;20653;-76
2022/07/22 07:52:39;;;;;;;9.43;5.40;;;;;;;31.07;100.00;64134.69;5069854;28;20286;-77
2022/07/22 07:55:08;;;;;;;11.57;5.97;;;;;;;31.12;100.00;64140.13;5073048;28;20579;-76
2022/07/22 07:57:36;;;;;;;14.30;5.67;;;;;;;30.61;98.01;64088.19;5090742;28;20210;-76
2022/07/22 08:00:09;;;;;;;15.70;5.90;;;;;;;31.09;96.45;64136.88;5073373;28;20220;-77
2022/07/22 08:02:36;;;;;;;12.17;5.10;;;;;;;30.90;94.15;64116.13;5081958;28;20203;-76
2022/07/22 08:05:07;;;;;;;8.47;5.30;;;;;;;30.81;98.62;64104.75;5072214;28;20196;-76
2022/07/22 08:07:38;;;;;;;12.87;5.37;;;;;;;31.34;100.00;64174.69;5070841;28;20204;-76
2022/07/22 08:10:07;;;;;;;10.97;5.07;;;;;;;30.93;90.84;64122.56;5083723;28;20283;-77
2022/07/22 08:12:35;;;;;;;11.07;5.50;;;;;;;31.86;89.75;64220.94;5083173;28;20203;-75
2022/07/22 08:15:10;;;;;;;11.97;5.50;;;;;;;32.25;91.64;64265.66;5089855;28;20195;-76
2022/07/22 08:17:37;;;;;;;11.03;5.70;;;;;;;32.43;86.54;64283.25;5088978;28;20681;-76
2022/07/22 08:20:07;;;;;;;11.77;4.33;;;;;;;32.02;75.25;64238.44;5070655;28;20632;-77
2022/07/22 08:22:35;;;;;;;11.63;5.70;;;;;;;32.13;75.79;64258.38;5070766;28;20199;-75
2022/07/22 08:25:04;;;;;;;10.77;4.87;;;;;;;32.40;78.08;64279.94;5069114;28;20224;-76
2022/07/22 08:27:31;;;;;;;7.40;4.43;;;;;;;31.63;74.41;64201.13;5071290;28;20227;-76
2022/07/22 08:29:59;;;;;;;12.37;5.33;;;;;;;33.11;72.42;64356.50;5070536;28;20678;-77
2022/07/22 08:32:29;;;;;;;9.43;4.80;;;;;;;33.14;70.77;64362.44;5073134;28;20220;-76
2022/07/22 08:34:56;;;;;;;7.30;4.53;;;;;;;32.64;70.69;64307.75;5074241;28;20191;-75
2022/07/22 08:37:23;;;;;;;9.23;4.20;;;;;;;32.70;76.22;64309.56;5073641;28;20223;-76
2022/07/22 08:39:53;;;;;;;12.33;4.33;;;;;;;33.27;75.01;64373.97;5073296;28;20219;-76
2022/07/22 08:42:22;;;;;;;7.23;4.60;;;;;;;33.47;69.13;64395.84;5086862;28;20198;-76
2022/07/22 08:44:50;;;;;;;9.93;4.67;;;;;;;32.80;67.78;64325.78;5074467;28;20304;-75
2022/07/22 08:47:21;;;;;;;9.10;4.37;;;;;;;33.41;69.00;64391.94;5074783;28;20198;-75
2022/07/22 08:49:49;;;;;;;10.67;5.63;;;;;;;33.13;67.11;64359.22;5074660;28;20207;-75
2022/07/22 08:52:17;;;;;;;10.87;5.80;;;;;;;33.04;66.51;64348.84;5074799;28;20666;-76
2022/07/22 08:54:46;;;;;;;9.93;4.70;;;;;;;32.24;68.51;64270.38;5074457;28;20191;-77
2022/07/22 08:57:14;;;;;;;6.50;4.17;;;;;;;33.42;70.44;64389.84;5076055;28;20202;-77
2022/07/22 08:59:52;;;;;;;7.90;4.80;;;;;;;33.47;64.58;64395.84;5076496;28;20234;-76
2022/07/22 09:02:21;;;;;;;10.20;4.60;;;;;;;33.36;64.70;64375.34;5076034;28;20210;-77
2022/07/22 09:05:00;;;;;;;10.40;4.73;;;;;;;33.39;63.50;64387.09;5076137;28;20193;-76
2022/07/22 09:07:34;;;;;;;8.33;4.33;;;;;;;33.84;61.98;64441.63;5075787;28;20204;-77
2022/07/22 09:10:04;;;;;;;7.00;4.67;;;;;;;34.10;65.25;64464.25;5078114;28;20196;-75
2022/07/22 09:12:32;;;;;;;8.77;4.87;;;;;;;34.44;61.56;64498.25;5089212;28;20203;-77
2022/07/22 09:15:01;;;;;;;6.23;4.43;;;;;;;34.58;60.96;64516.78;5074352;28;20289;-76
2022/07/22 09:17:31;;;;;;;7.03;4.63;;;;;;;34.11;63.31;64462.69;5074740;28;20207;-76
2022/07/22 09:20:16;;;;;;;6.53;4.30;;;;;;;34.37;60.82;64498.53;5073522;28;20693;-77
2022/07/22 09:22:46;;;;;;;10.70;4.53;;;;;;;34.01;61.30;64454.41;5062940;28;20195;-75
2022/07/22 09:25:33;;;;;;;7.27;4.57;;;;;;;33.95;60.55;64451.00;5074367;28;20220;-76
2022/07/22 09:28:14;;;;;;;6.70;4.63;;;;;;;33.62;61.74;64412.28;5072238;28;20203;-75
2022/07/22 09:30:46;;;;;;;13.90;5.00;;;;;;;33.77;60.64;64431.31;5061221;28;20206;-78
2022/07/22 09:33:14;;;;;;;10.83;4.60;;;;;;;34.25;61.93;64480.13;5073257;28;20206;-76
2022/07/22 09:35:43;;;;;;;9.93;5.03;;;;;;;33.46;61.75;64392.13;5073224;28;20207;-76
2022/07/22 09:38:15;;;;;;;9.43;4.60;;;;;;;34.63;58.70;64524.38;5072724;28;20289;-75
2022/07/22 09:40:45;;;;;;;7.97;4.20;;;;;;;34.49;56.33;64506.41;5089414;28;20227;-77
2022/07/22 09:43:16;;;;;;;8.23;3.93;;;;;;;34.74;58.11;64539.59;5081502;28;20201;-76
2022/07/22 09:45:48;;;;;;;7.53;4.57;;;;;;;34.81;58.33;64538.78;5090157;28;20194;-76
2022/07/22 09:48:17;;;;;;;16.47;5.27;;;;;;;35.20;56.51;64583.56;5080616;28;20202;-77
2022/07/22 09:50:51;;;;;;;6.70;4.37;;;;;;;34.21;54.29;64475.75;5072328;28;20248;-76
2022/07/22 09:53:22;;;;;;;8.20;4.17;;;;;;;35.06;53.80;64568.81;5085798;28;20661;-77
2022/07/22 09:55:50;;;;;;;4.93;4.23;;;;;;;35.47;55.73;64616.38;5072743;28;20196;-75
2022/07/22 09:58:18;;;;;;;10.13;4.43;;;;;;;35.54;54.03;64626.69;5072375;28;20216;-78
2022/07/22 10:00:48;;;;;;;6.33;4.40;;;;;;;35.75;56.31;64645.94;5072250;28;20216;-76
2022/07/22 10:03:19;;;;;;;8.40;4.27;;;;;;;35.56;55.83;64623.56;5072528;28;20203;-76
2022/07/22 10:05:48;;;;;;;11.83;4.10;;;;;;;35.88;54.88;64662.84;5080563;28;20199;-77
2022/07/22 10:08:15;;;;;;;6.87;5.07;;;;;;;36.18;54.48;64690.97;5075507;28;20271;-77
2022/07/22 10:10:42;;;;;;;6.00;4.53;;;;;;;36.32;52.43;64700.47;5072361;28;20206;-76
2022/07/22 10:13:13;;;;;;;9.50;4.20;;;;;;;35.60;52.38;64627.97;5072288;28;20672;-77
2022/07/22 10:15:40;;;;;;;7.40;4.27;;;;;;;35.40;53.25;64611.34;5072450;28;20639;-77
2022/07/22 10:18:15;;;;;;;11.70;4.30;;;;;;;35.07;53.53;64572.00;5072207;28;20207;-77
2022/07/22 10:20:43;;;;;;;5.20;4.37;;;;;;;35.07;55.09;64572.56;5072099;28;20240;-75
2022/07/22 10:23:14;;;;;;;9.80;4.80;;;;;;;36.08;52.36;64680.00;5078254;28;20688;-76
2022/07/22 10:25:53;;;;;;;7.00;4.53;;;;;;;35.87;52.36;64657.00;5090565;28;20232;-76
2022/07/22 10:28:28;;;;;;;8.80;4.40;;;;;;;35.71;55.02;64641.56;5092409;28;20191;-77
2022/07/22 10:31:18;;;;;;;6.70;4.90;;;;;;;35.10;52.60;64575.84;5094325;28;20208;-74
2022/07/22 10:33:50;;;;;;;6.33;4.53;;;;;;;35.61;51.40;64628.50;5092902;28;20662;-77
2022/07/22 10:36:32;;;;;;;9.00;4.40;;;;;;;36.23;54.85;64690.59;5062415;28;20208;-75
2022/07/22 10:39:09;;;;;;;6.07;4.63;;;;;;;36.21;53.66;64694.25;5074683;28;20206;-77
2022/07/22 10:41:39;;;;;;;7.67;4.63;;;;;;;36.75;50.09;64752.91;5091839;28;20207;-76
2022/07/22 10:44:07;;;;;;;8.67;4.70;;;;;;;36.66;53.09;64743.06;5091370;28;20192;-77
2022/07/22 10:46:53;;;;;;;12.10;4.80;;;;;;;36.88;48.75;64769.28;5079006;28;20277;-75
2022/07/22 10:49:25;;;;;;;11.50;4.90;;;;;;;36.41;50.16;64715.66;5067711;28;20206;-76
2022/07/22 10:52:16;;;;;;;7.13;5.23;;;;;;;36.54;52.50;64729.91;5091152;28;20576;-76
2022/07/22 10:55:19;;;;;;;10.77;4.77;;;;;;;36.28;51.07;64701.38;5091244;28;20249;-77
2022/07/22 10:57:48;;;;;;;18.90;5.17;;;;;;;35.92;51.58;64667.22;5061909;28;20223;-76
2022/07/22 11:00:16;;;;;;;9.23;4.70;;;;;;;35.64;54.81;64632.34;5088592;28;20712;-76
2022/07/22 11:02:43;;;;;;;13.90;4.77;;;;;;;35.87;53.47;64656.44;5090869;28;20210;-76
2022/07/22 11:05:12;;;;;;;7.63;4.73;;;;;;;36.41;51.12;64715.66;5089999;28;20202;-75
2022/07/22 11:07:44;;;;;;;12.43;5.10;;;;;;;35.19;51.15;64583.03;5090992;28;20214;-76
2022/07/22 11:10:13;;;;;;;10.20;5.03;;;;;;;35.73;51.91;64638.44;5090554;28;20199;-75
2022/07/22 11:12:42;;;;;;;9.27;4.87;;;;;;;36.15;50.56;64687.13;5090390;28;20639;-76
2022/07/22 11:15:10;;;;;;;6.83;4.67;;;;;;;36.36;49.77;64707.50;5065657;28;20204;-76
2022/07/22 11:17:39;;;;;;;10.33;4.80;;;;;;;36.34;49.86;64708.50;5089454;28;20732;-75
2022/07/22 11:20:09;;;;;;;6.17;4.40;;;;;;;36.69;49.63;64746.34;5082584;28;20235;-75
2022/07/22 11:22:38;;;;;;;5.43;4.00;;;;;;;36.78;47.87;64761.53;5070813;28;20651;-77
2022/07/22 11:25:07;;;;;;;10.43;5.03;;;;;;;36.90;48.02;64772.03;5070760;28;20314;-76
2022/07/22 11:27:34;;;;;;;10.63;4.73;;;;;;;36.19;48.18;64692.06;5084051;28;20191;-76
2022/07/22 11:30:06;;;;;;;12.43;5.57;;;;;;;37.00;46.39;64785.66;5064790;28;20290;-78